createdAt,value
2023-03-27T00:00:50.903Z,97502.05
2023-03-27T00:03:40.523Z,97505.59
2023-03-27T00:06:29.301Z,97503.64
2023-03-27T00:09:20.157Z,97503.11
2023-03-27T00:12:08.712Z,97500.95
2023-03-27T00:14:57.911Z,97499.60
2023-03-27T00:17:48.336Z,97500.08
2023-03-27T00:20:37.586Z,97508.16
2023-03-27T00:23:26.351Z,97507.20
2023-03-27T00:26:15.992Z,97509.66
2023-03-27T00:29:04.693Z,97509.05
2023-03-27T00:31:53.963Z,97503.99
2023-03-27T00:34:42.689Z,97499.83
2023-03-27T00:37:32.557Z,97492.63
2023-03-27T00:40:21.106Z,97487.00
2023-03-27T00:43:34.064Z,97486.27
2023-03-27T00:46:38.908Z,97488.23
2023-03-27T00:49:31.903Z,97489.90
2023-03-27T00:52:21.425Z,97489.95
2023-03-27T00:55:17.612Z,97485.73
2023-03-27T00:58:19.697Z,97484.96
2023-03-27T01:06:14.881Z,97471.49
2023-03-27T01:09:04.750Z,97471.20
2023-03-27T01:12:15.214Z,97472.62
2023-03-27T01:15:42.763Z,97470.05
2023-03-27T01:18:44.753Z,97474.44
2023-03-27T01:22:00.086Z,97476.87
2023-03-27T01:25:08.117Z,97476.27
2023-03-27T01:28:37.641Z,97472.89
2023-03-27T01:31:47.836Z,97472.83
2023-03-27T01:35:12.073Z,97479.75
2023-03-27T01:38:16.012Z,97479.57
2023-03-27T01:41:11.625Z,97477.89
2023-03-27T01:44:07.993Z,97480.17
2023-03-27T01:47:07.572Z,97481.00
2023-03-27T01:50:16.825Z,97469.23
2023-03-27T01:53:13.968Z,97467.09
2023-03-27T01:56:10.734Z,97470.99
2023-03-27T01:59:18.777Z,97469.70
2023-03-27T02:02:17.626Z,97462.56
2023-03-27T02:05:16.869Z,97462.08
2023-03-27T02:08:31.536Z,97461.60
2023-03-27T02:11:37.812Z,97461.11
2023-03-27T02:14:36.591Z,97460.54
2023-03-27T02:17:28.314Z,97457.80
2023-03-27T02:20:18.221Z,97454.46
2023-03-27T02:23:07.758Z,97453.73
2023-03-27T02:25:57.334Z,97455.39
2023-03-27T02:28:56.013Z,97454.79
2023-03-27T02:32:14.822Z,97456.73
2023-03-27T02:35:21.204Z,97459.98
2023-03-27T02:38:17.686Z,97454.10
2023-03-27T02:41:13.991Z,97448.93
2023-03-27T02:44:17.586Z,97442.78
2023-03-27T02:47:47.861Z,97442.80
2023-03-27T02:50:43.917Z,97435.47
2023-03-27T02:53:40.309Z,97438.46
2023-03-27T02:56:38.449Z,97435.81
2023-03-27T02:59:45.405Z,97440.39
2023-03-27T03:02:34.725Z,97442.73
2023-03-27T03:05:25.572Z,97439.71
2023-03-27T03:08:14.942Z,97443.61
2023-03-27T03:11:06.200Z,97448.20
2023-03-27T03:13:56.183Z,97447.04
2023-03-27T03:16:44.868Z,97445.77
2023-03-27T03:19:34.111Z,97449.28
2023-03-27T03:22:22.778Z,97452.22
2023-03-27T03:25:12.526Z,97456.25
2023-03-27T03:28:01.263Z,97461.66
2023-03-27T03:30:50.615Z,97464.50
2023-03-27T03:33:39.890Z,97465.86
2023-03-27T03:36:30.890Z,97468.11
2023-03-27T03:39:19.892Z,97468.88
2023-03-27T03:42:22.814Z,97479.38
2023-03-27T03:45:14.700Z,97480.33
2023-03-27T03:48:03.670Z,97482.02
2023-03-27T03:50:52.705Z,97480.39
2023-03-27T03:53:42.645Z,97483.04
2023-03-27T03:56:31.688Z,97487.87
2023-03-27T03:59:21.472Z,97494.80
2023-03-27T04:02:29.023Z,97496.45
2023-03-27T04:05:26.100Z,97499.83
2023-03-27T04:08:16.844Z,97500.64
2023-03-27T04:11:34.324Z,97503.35
2023-03-27T04:14:30.939Z,97505.68
2023-03-27T04:17:26.764Z,97509.03
2023-03-27T04:20:17.467Z,97507.26
2023-03-27T04:23:06.252Z,97510.52
2023-03-27T04:26:01.550Z,97514.33
2023-03-27T04:29:11.641Z,97513.02
2023-03-27T04:32:20.982Z,97510.75
2023-03-27T04:35:38.577Z,97516.59
2023-03-27T04:38:36.990Z,97522.38
2023-03-27T04:41:30.031Z,97518.92
2023-03-27T04:44:18.921Z,97518.11
2023-03-27T04:47:09.022Z,97519.77
2023-03-27T04:50:00.277Z,97521.83
2023-03-27T04:52:50.529Z,97527.14
2023-03-27T04:55:40.532Z,97527.99
2023-03-27T04:58:29.872Z,97528.48
2023-03-27T05:01:19.239Z,97529.41
2023-03-27T05:04:19.899Z,97526.34
2023-03-27T05:07:26.659Z,97525.81
2023-03-27T05:10:21.751Z,97527.90
2023-03-27T05:13:11.690Z,97533.65
2023-03-27T05:16:02.269Z,97540.25
2023-03-27T05:18:56.843Z,97540.88
2023-03-27T05:21:47.121Z,97544.55
2023-03-27T05:24:35.833Z,97546.27
2023-03-27T05:27:25.489Z,97548.68
2023-03-27T05:30:19.256Z,97546.78
2023-03-27T05:33:09.458Z,97553.89
2023-03-27T05:35:59.574Z,97556.19
2023-03-27T05:38:48.614Z,97556.60
2023-03-27T05:41:49.362Z,97552.92
2023-03-27T05:44:43.620Z,97552.64
2023-03-27T05:47:32.321Z,97556.48
2023-03-27T05:50:25.780Z,97554.75
2023-03-27T05:53:15.812Z,97548.92
2023-03-27T05:56:21.080Z,97554.46
2023-03-27T05:59:19.305Z,97558.03
2023-03-27T06:02:08.964Z,97562.02
2023-03-27T06:05:12.925Z,97565.34
2023-03-27T06:08:03.291Z,97557.83
2023-03-27T06:10:52.212Z,97562.39
2023-03-27T06:13:47.375Z,97566.31
2023-03-27T06:16:40.178Z,97570.73
2023-03-27T06:19:49.604Z,97577.41
2023-03-27T06:22:44.318Z,97593.18
2023-03-27T06:25:35.239Z,97605.36
2023-03-27T06:28:24.358Z,97617.23
2023-03-27T06:31:15.207Z,97617.92
2023-03-27T06:34:24.352Z,97622.30
2023-03-27T06:37:25.154Z,97626.79
2023-03-27T06:40:24.408Z,97627.89
2023-03-27T06:43:17.663Z,97636.06
2023-03-27T06:46:14.987Z,97640.20
2023-03-27T06:49:39.056Z,97650.85
2023-03-27T06:52:33.060Z,97650.15
2023-03-27T06:55:33.322Z,97652.50
2023-03-27T06:58:22.238Z,97656.67
2023-03-27T07:01:13.424Z,97655.25
2023-03-27T07:04:34.810Z,97663.96
2023-03-27T07:07:41.660Z,97677.69
2023-03-27T07:10:32.941Z,97684.48
2023-03-27T07:13:22.833Z,97690.50
2023-03-27T07:16:14.514Z,97696.02
2023-03-27T07:19:05.501Z,97697.80
2023-03-27T07:21:55.961Z,97704.95
2023-03-27T07:24:45.767Z,97711.98
2023-03-27T07:27:34.444Z,97717.73
2023-03-27T07:30:24.651Z,97720.31
2023-03-27T07:33:14.346Z,97727.51
2023-03-27T07:36:07.322Z,97731.84
2023-03-27T07:39:05.670Z,97740.98
2023-03-27T07:41:54.440Z,97744.04
2023-03-27T07:45:06.368Z,97753.57
2023-03-27T07:47:55.084Z,97759.01
2023-03-27T07:50:45.293Z,97762.62
2023-03-27T07:53:36.336Z,97769.87
2023-03-27T07:56:35.916Z,97775.84
2023-03-27T07:59:47.884Z,97787.17
2023-03-27T08:02:40.040Z,97793.88
2023-03-27T08:05:29.304Z,97800.34
2023-03-27T08:08:27.815Z,97805.54
2023-03-27T08:11:30.312Z,97806.65
2023-03-27T08:14:19.986Z,97808.09
2023-03-27T08:17:15.732Z,97812.20
2023-03-27T08:20:09.400Z,97818.69
2023-03-27T08:23:05.166Z,97823.68
2023-03-27T08:25:55.146Z,97825.05
2023-03-27T08:28:45.703Z,97829.94
2023-03-27T08:31:35.344Z,97831.91
2023-03-27T08:34:26.639Z,97838.05
2023-03-27T08:37:17.170Z,97836.73
2023-03-27T08:40:26.701Z,97838.04
2023-03-27T08:43:33.833Z,97835.99
2023-03-27T08:46:29.003Z,97843.02
2023-03-27T08:49:21.873Z,97842.59
2023-03-27T08:52:45.700Z,97847.84
2023-03-27T08:55:44.571Z,97850.09
2023-03-27T08:58:39.439Z,97850.95
2023-03-27T09:02:18.834Z,97849.95
2023-03-27T09:05:18.186Z,97854.95
2023-03-27T09:08:22.166Z,97857.23
2023-03-27T09:11:25.598Z,97859.77
2023-03-27T09:14:39.966Z,97863.10
2023-03-27T09:17:36.586Z,97866.00
2023-03-27T09:20:47.770Z,97863.77
2023-03-27T09:23:43.801Z,97869.84
2023-03-27T09:27:32.744Z,97875.75
2023-03-27T09:30:39.039Z,97890.08
2023-03-27T09:33:33.387Z,97894.34
2023-03-27T09:36:24.793Z,97894.86
2023-03-27T09:39:22.541Z,97904.42
2023-03-27T09:42:29.714Z,97903.86
2023-03-27T09:45:21.000Z,97902.26
2023-03-27T09:48:28.448Z,97909.05
2023-03-27T09:51:48.838Z,97911.08
2023-03-27T09:54:54.257Z,97915.27
2023-03-27T09:57:59.090Z,97915.57
2023-03-27T10:00:48.648Z,97918.48
2023-03-27T10:03:51.295Z,97918.79
2023-03-27T10:07:22.553Z,97920.20
2023-03-27T10:10:32.726Z,97928.73
2023-03-27T10:13:47.244Z,97936.80
2023-03-27T10:16:41.087Z,97934.80
2023-03-27T10:19:35.869Z,97931.56
2023-03-27T10:22:33.892Z,97932.31
2023-03-27T10:25:34.585Z,97929.55
2023-03-27T10:28:49.060Z,97946.55
2023-03-27T10:31:59.404Z,97947.98
2023-03-27T10:35:00.776Z,97952.25
2023-03-27T10:38:15.265Z,97960.77
2023-03-27T10:41:28.110Z,97959.17
2023-03-27T10:44:26.090Z,97968.52
2023-03-27T10:47:28.088Z,97972.36
2023-03-27T10:50:24.679Z,97970.60
2023-03-27T10:53:30.340Z,97968.23
2023-03-27T10:56:32.022Z,97974.97
2023-03-27T10:59:40.649Z,97972.63
2023-03-27T11:02:49.664Z,97976.50
2023-03-27T11:05:53.884Z,97975.88
2023-03-27T11:09:16.255Z,97981.48
2023-03-27T11:12:19.244Z,97980.45
2023-03-27T11:15:22.445Z,97983.29
2023-03-27T11:18:18.635Z,97985.71
2023-03-27T11:21:44.881Z,97983.73
2023-03-27T11:24:53.915Z,97987.86
2023-03-27T11:28:24.441Z,97994.60
2023-03-27T11:31:46.216Z,98002.44
2023-03-27T11:34:53.172Z,98007.92
2023-03-27T11:38:04.718Z,98006.05
2023-03-27T11:41:00.253Z,98002.05
2023-03-27T11:43:49.521Z,98001.81
2023-03-27T11:47:41.198Z,98011.31
2023-03-27T11:50:44.085Z,98004.34
2023-03-27T11:53:48.661Z,98010.68
2023-03-27T11:56:51.760Z,98006.96
2023-03-27T12:00:13.538Z,98006.08
2023-03-27T12:03:33.973Z,98010.37
2023-03-27T12:06:34.903Z,98014.42
2023-03-27T12:09:33.697Z,98015.28
2023-03-27T12:12:55.975Z,98015.52
2023-03-27T12:16:11.452Z,98023.80
2023-03-27T12:19:46.223Z,98025.06
2023-03-27T12:23:09.243Z,98034.15
2023-03-27T12:26:51.333Z,98046.67
2023-03-27T12:30:13.183Z,98052.08
2023-03-27T12:33:25.315Z,98055.88
2023-03-27T12:36:21.728Z,98064.39
2023-03-27T12:39:26.412Z,98067.02
2023-03-27T12:42:43.999Z,98068.80
2023-03-27T12:45:38.744Z,98074.60
2023-03-27T12:48:48.718Z,98078.29
2023-03-27T12:52:07.038Z,98083.43
2023-03-27T12:55:19.101Z,98089.08
2023-03-27T12:58:34.965Z,98092.96
2023-03-27T13:01:52.333Z,98097.95
2023-03-27T13:04:50.265Z,98100.93
2023-03-27T13:07:45.956Z,98108.27
2023-03-27T13:10:59.197Z,98114.05
2023-03-27T13:14:17.327Z,98115.86
2023-03-27T13:17:30.206Z,98119.48
2023-03-27T13:20:45.712Z,98126.27
2023-03-27T13:23:54.821Z,98135.16
2023-03-27T13:27:04.665Z,98146.39
2023-03-27T13:29:57.998Z,98146.09
2023-03-27T13:33:24.985Z,98152.66
2023-03-27T13:36:21.286Z,98165.85
2023-03-27T13:39:18.368Z,98177.67
2023-03-27T13:42:15.249Z,98189.16
2023-03-27T13:45:24.343Z,98195.20
2023-03-27T13:48:54.414Z,98202.27
2023-03-27T13:52:12.635Z,98208.16
2023-03-27T13:55:17.234Z,98203.97
2023-03-27T13:58:53.627Z,98199.09
2023-03-27T14:02:15.150Z,98198.27
2023-03-27T14:05:15.485Z,98201.40
2023-03-27T14:08:36.290Z,98209.73
2023-03-27T14:12:30.068Z,98210.13
2023-03-27T14:16:12.695Z,98214.36
2023-03-27T14:19:20.293Z,98215.95
2023-03-27T14:22:36.277Z,98223.11
2023-03-27T14:25:34.351Z,98226.52
2023-03-27T14:28:54.406Z,98229.52
2023-03-27T14:32:17.423Z,98224.39
2023-03-27T14:35:33.717Z,98226.86
2023-03-27T14:38:34.691Z,98229.79
2023-03-27T14:41:26.253Z,98227.08
2023-03-27T14:44:19.165Z,98223.66
2023-03-27T14:47:15.494Z,98222.51
2023-03-27T14:50:06.293Z,98220.36
2023-03-27T14:53:10.516Z,98215.77
2023-03-27T14:56:27.379Z,98213.67
2023-03-27T14:59:36.390Z,98219.57
2023-03-27T15:02:34.691Z,98219.22
2023-03-27T15:05:26.412Z,98222.27
2023-03-27T15:08:22.362Z,98230.11
2023-03-27T15:11:38.780Z,98239.17
2023-03-27T15:14:43.277Z,98249.02
2023-03-27T15:17:34.806Z,98260.38
2023-03-27T15:20:31.841Z,98263.91
2023-03-27T15:23:37.204Z,98269.36
2023-03-27T15:26:31.448Z,98269.80
2023-03-27T15:29:32.486Z,98275.90
2023-03-27T15:32:22.359Z,98280.89
2023-03-27T15:35:18.370Z,98284.77
2023-03-27T15:38:11.640Z,98296.20
2023-03-27T15:41:28.929Z,98302.15
2023-03-27T15:44:24.626Z,98306.30
2023-03-27T15:47:30.274Z,98309.94
2023-03-27T15:50:22.576Z,98317.20
2023-03-27T15:53:11.776Z,98329.75
2023-03-27T15:56:46.899Z,98335.67
2023-03-27T15:59:36.850Z,98338.84
2023-03-27T16:02:41.676Z,98349.30
2023-03-27T16:05:30.564Z,98357.20
2023-03-27T16:08:33.784Z,98358.36
2023-03-27T16:11:43.576Z,98364.81
2023-03-27T16:14:44.110Z,98367.27
2023-03-27T16:17:54.487Z,98369.70
2023-03-27T16:20:43.634Z,98375.29
2023-03-27T16:23:32.428Z,98383.77
2023-03-27T16:26:28.253Z,98386.44
2023-03-27T16:29:19.683Z,98396.45
2023-03-27T16:32:15.498Z,98403.53
2023-03-27T16:35:04.469Z,98409.91
2023-03-27T16:37:54.259Z,98418.80
2023-03-27T16:40:44.704Z,98420.15
2023-03-27T16:43:33.801Z,98430.97
2023-03-27T16:46:26.340Z,98435.93
2023-03-27T16:49:15.291Z,98439.08
2023-03-27T16:52:04.578Z,98443.69
2023-03-27T16:54:53.836Z,98456.05
2023-03-27T16:57:43.309Z,98454.88
2023-03-27T17:00:32.219Z,98459.06
2023-03-27T17:03:21.031Z,98463.83
2023-03-27T17:06:11.575Z,98470.41
2023-03-27T17:09:00.654Z,98475.11
2023-03-27T17:11:49.346Z,98475.90
2023-03-27T17:14:38.155Z,98478.86
2023-03-27T17:17:30.508Z,98482.53
2023-03-27T17:20:20.743Z,98484.21
2023-03-27T17:23:11.574Z,98485.36
2023-03-27T17:26:02.023Z,98485.31
2023-03-27T17:28:50.971Z,98488.17
2023-03-27T17:31:40.112Z,98492.23
2023-03-27T17:34:29.592Z,98493.17
2023-03-27T17:37:19.241Z,98500.58
2023-03-27T17:40:12.631Z,98505.02
2023-03-27T17:43:01.536Z,98507.05
2023-03-27T17:45:51.144Z,98506.42
2023-03-27T17:48:42.054Z,98506.98
2023-03-27T17:51:30.796Z,98512.70
2023-03-27T17:54:19.573Z,98513.70
2023-03-27T17:57:08.507Z,98519.30
2023-03-27T17:59:57.197Z,98523.16
2023-03-27T18:02:46.181Z,98528.70
2023-03-27T18:05:39.741Z,98533.61
2023-03-27T18:08:29.045Z,98533.57
2023-03-27T18:11:17.895Z,98535.23
2023-03-27T18:14:06.920Z,98537.50
2023-03-27T18:16:55.642Z,98541.52
2023-03-27T18:19:45.218Z,98542.14
2023-03-27T18:22:33.870Z,98543.91
2023-03-27T18:25:23.065Z,98553.29
2023-03-27T18:28:12.844Z,98552.58
2023-03-27T18:31:08.390Z,98557.15
2023-03-27T18:33:57.545Z,98564.06
2023-03-27T18:36:50.828Z,98568.45
2023-03-27T18:39:39.937Z,98570.40
2023-03-27T18:42:28.744Z,98572.98
2023-03-27T18:45:17.860Z,98572.83
2023-03-27T18:48:08.203Z,98576.06
2023-03-27T18:50:58.969Z,98580.65
2023-03-27T18:53:49.850Z,98578.65
2023-03-27T18:56:38.712Z,98585.20
2023-03-27T18:59:27.646Z,98581.00
2023-03-27T19:02:17.359Z,98586.08
2023-03-27T19:05:06.775Z,98588.11
2023-03-27T19:07:59.423Z,98590.73
2023-03-27T19:10:48.327Z,98591.30
2023-03-27T19:13:44.285Z,98591.88
2023-03-27T19:16:51.801Z,98598.81
2023-03-27T19:20:00.476Z,98600.71
2023-03-27T19:23:08.489Z,98607.25
2023-03-27T19:26:09.497Z,98606.70
2023-03-27T19:29:02.363Z,98611.00
2023-03-27T19:31:52.167Z,98611.46
2023-03-27T19:34:43.061Z,98614.13
2023-03-27T19:37:32.423Z,98617.25
2023-03-27T19:40:21.665Z,98618.20
2023-03-27T19:43:10.562Z,98618.03
2023-03-27T19:46:14.894Z,98620.03
2023-03-27T19:49:04.617Z,98622.73
2023-03-27T19:52:11.884Z,98622.63
2023-03-27T19:55:00.855Z,98625.52
2023-03-27T19:57:49.786Z,98627.52
2023-03-27T20:00:38.593Z,98627.42
2023-03-27T20:03:29.569Z,98629.39
2023-03-27T20:06:19.877Z,98632.41
2023-03-27T20:09:09.098Z,98634.44
2023-03-27T20:11:57.738Z,98633.63
2023-03-27T20:14:58.137Z,98632.21
2023-03-27T20:17:56.172Z,98640.30
2023-03-27T20:20:47.792Z,98639.01
2023-03-27T20:23:37.901Z,98638.65
2023-03-27T20:26:28.258Z,98636.61
2023-03-27T20:29:23.763Z,98637.60
2023-03-27T20:32:12.498Z,98637.88
2023-03-27T20:35:07.371Z,98639.34
2023-03-27T20:38:05.609Z,98640.38
2023-03-27T20:40:58.084Z,98643.70
2023-03-27T20:43:48.996Z,98642.23
2023-03-27T20:46:37.739Z,98645.34
2023-03-27T20:52:22.938Z,98642.73
2023-03-27T20:55:20.001Z,98643.80
2023-03-27T20:58:15.765Z,98643.89
2023-03-27T21:01:09.063Z,98646.83
2023-03-27T21:04:02.299Z,98646.52
2023-03-27T21:06:51.776Z,98644.59
2023-03-27T21:09:43.145Z,98644.55
2023-03-27T21:12:32.320Z,98647.36
2023-03-27T21:15:20.981Z,98642.36
2023-03-27T21:18:09.943Z,98644.43
2023-03-27T21:20:58.573Z,98642.70
2023-03-27T21:23:48.211Z,98641.78
2023-03-27T21:26:37.288Z,98639.64
2023-03-27T21:29:26.402Z,98642.90
2023-03-27T21:32:15.198Z,98639.61
2023-03-27T21:35:03.871Z,98635.79
2023-03-27T21:37:52.667Z,98636.55
2023-03-27T21:40:41.907Z,98634.80
2023-03-27T21:43:31.226Z,98636.17
2023-03-27T21:46:20.092Z,98637.18
2023-03-27T21:49:09.230Z,98638.25
2023-03-27T21:51:58.762Z,98637.55
2023-03-27T21:55:00.411Z,98633.86
2023-03-27T21:57:52.310Z,98631.88
2023-03-27T22:00:41.107Z,98630.59
2023-03-27T22:03:30.738Z,98632.03
2023-03-27T22:06:19.504Z,98625.45
2023-03-27T22:09:09.534Z,98623.30
2023-03-27T22:12:01.509Z,98628.78
2023-03-27T22:14:50.476Z,98630.88
2023-03-27T22:17:39.468Z,98634.09
2023-03-27T22:20:28.474Z,98634.23
2023-03-27T22:23:17.194Z,98632.48
2023-03-27T22:26:06.535Z,98632.94
2023-03-27T22:28:56.645Z,98630.91
2023-03-27T22:31:45.828Z,98635.38
2023-03-27T22:34:34.593Z,98633.66
2023-03-27T22:37:25.121Z,98631.61
2023-03-27T22:40:13.730Z,98630.23
2023-03-27T22:43:02.759Z,98633.31
2023-03-27T22:45:52.556Z,98630.73
2023-03-27T22:48:41.938Z,98634.41
2023-03-27T22:51:31.763Z,98634.52
2023-03-27T22:54:20.738Z,98631.73
2023-03-27T22:57:10.133Z,98632.02
2023-03-27T22:59:59.264Z,98639.48
2023-03-27T23:02:48.051Z,98636.17
2023-03-27T23:05:46.939Z,98638.63
2023-03-27T23:08:35.714Z,98643.10
2023-03-27T23:11:24.781Z,98640.70
2023-03-27T23:14:13.985Z,98640.96
2023-03-27T23:17:03.487Z,98638.06
2023-03-27T23:19:52.200Z,98636.30
2023-03-27T23:22:41.157Z,98634.39
2023-03-27T23:25:36.962Z,98637.04
2023-03-27T23:28:31.723Z,98635.09
2023-03-27T23:31:20.795Z,98634.55
2023-03-27T23:34:09.619Z,98630.00
2023-03-27T23:36:58.328Z,98632.58
2023-03-27T23:39:47.287Z,98635.29
2023-03-27T23:42:35.941Z,98641.42
2023-03-27T23:45:25.001Z,98639.17
2023-03-27T23:48:14.016Z,98634.42
2023-03-27T23:51:03.336Z,98633.39
2023-03-27T23:53:52.103Z,98628.82
2023-03-27T23:56:41.025Z,98629.80
2023-03-27T23:59:38.091Z,98631.93
